createdAt,value
2019-02-06T00:01:19.234Z,94.58
2019-02-06T00:03:48.563Z,94.67
2019-02-06T00:06:17.907Z,94.57
2019-02-06T00:08:47.248Z,94.33
2019-02-06T00:11:16.605Z,94.70
2019-02-06T00:13:45.944Z,94.92
2019-02-06T00:16:15.720Z,95.04
2019-02-06T00:18:45.133Z,95.16
2019-02-06T00:21:14.630Z,95.26
2019-02-06T00:23:43.967Z,95.24
2019-02-06T00:26:14.199Z,95.02
2019-02-06T00:28:43.523Z,94.87
2019-02-06T00:31:13.397Z,95.23
2019-02-06T00:33:42.781Z,95.18
2019-02-06T00:36:12.228Z,95.36
2019-02-06T00:38:41.572Z,95.39
2019-02-06T00:41:11.131Z,95.37
2019-02-06T00:43:40.523Z,95.52
2019-02-06T00:46:09.972Z,95.33
2019-02-06T00:48:39.398Z,95.50
2019-02-06T00:51:08.846Z,95.04
2019-02-06T00:53:38.169Z,94.49
2019-02-06T00:56:26.779Z,94.15
2019-02-06T00:58:56.200Z,94.06
2019-02-06T01:01:25.685Z,93.69
2019-02-06T01:03:55.257Z,93.95
2019-02-06T01:06:24.953Z,94.24
2019-02-06T01:08:54.288Z,94.53
2019-02-06T01:11:23.787Z,94.45
2019-02-06T01:13:53.228Z,93.77
2019-02-06T01:16:22.522Z,94.05
2019-02-06T01:18:51.982Z,93.85
2019-02-06T01:21:21.333Z,94.23
2019-02-06T01:23:50.943Z,94.12
2019-02-06T01:26:39.362Z,94.04
2019-02-06T01:29:08.720Z,94.04
2019-02-06T01:31:38.237Z,94.14
2019-02-06T01:34:28.204Z,94.34
2019-02-06T01:36:57.670Z,94.35
2019-02-06T01:42:15.550Z,94.76
2019-02-06T01:44:44.973Z,94.84
2019-02-06T01:47:14.375Z,94.50
2019-02-06T01:49:44.866Z,94.81
2019-02-06T01:52:14.818Z,94.33
2019-02-06T01:54:44.159Z,94.83
2019-02-06T01:57:13.941Z,94.80
2019-02-06T01:59:43.457Z,94.44
2019-02-06T02:02:12.831Z,94.11
2019-02-06T02:04:42.295Z,94.22
2019-02-06T02:07:11.805Z,94.33
2019-02-06T02:09:41.233Z,94.56
2019-02-06T02:12:10.880Z,94.63
2019-02-06T02:14:40.332Z,94.83
2019-02-06T02:17:09.699Z,94.98
2019-02-06T02:19:39.328Z,94.68
2019-02-06T02:22:08.690Z,94.86
2019-02-06T02:24:38.315Z,94.98
2019-02-06T02:27:07.882Z,94.61
2019-02-06T02:29:37.313Z,94.78
2019-02-06T02:32:06.652Z,94.96
2019-02-06T02:34:36.211Z,94.80
2019-02-06T02:37:05.605Z,94.59
2019-02-06T02:39:35.127Z,94.73
2019-02-06T02:42:04.703Z,94.83
2019-02-06T02:44:34.079Z,95.15
2019-02-06T02:47:03.443Z,95.22
2019-02-06T02:49:33.239Z,95.22
2019-02-06T02:52:21.933Z,95.31
2019-02-06T02:54:51.270Z,95.14
2019-02-06T02:57:21.723Z,95.27
2019-02-06T02:59:51.070Z,95.00
2019-02-06T03:02:39.465Z,95.09
2019-02-06T03:05:13.857Z,95.22
2019-02-06T03:07:43.213Z,95.37
2019-02-06T03:10:12.834Z,95.54
2019-02-06T03:12:42.279Z,95.41
2019-02-06T03:15:11.983Z,95.65
2019-02-06T03:17:43.483Z,95.07
2019-02-06T03:20:13.030Z,95.16
2019-02-06T03:22:42.467Z,95.08
2019-02-06T03:25:12.051Z,95.14
2019-02-06T03:27:41.530Z,95.40
2019-02-06T03:30:12.777Z,95.50
2019-02-06T03:32:42.401Z,95.56
2019-02-06T03:35:11.836Z,95.64
2019-02-06T03:37:41.303Z,95.69
2019-02-06T03:40:11.762Z,95.71
2019-02-06T03:42:41.082Z,95.84
2019-02-06T03:45:11.467Z,95.78
2019-02-06T03:47:41.016Z,95.80
2019-02-06T03:50:13.262Z,95.81
2019-02-06T03:53:01.892Z,95.49
2019-02-06T03:55:31.279Z,95.73
2019-02-06T03:58:01.366Z,95.85
2019-02-06T04:00:30.728Z,96.00
2019-02-06T04:03:00.243Z,96.10
2019-02-06T04:05:29.600Z,96.26
2019-02-06T04:07:59.054Z,96.22
2019-02-06T04:10:28.470Z,96.14
2019-02-06T04:12:59.775Z,96.24
2019-02-06T04:15:29.128Z,96.22
2019-02-06T04:17:58.548Z,96.04
2019-02-06T04:20:27.924Z,96.34
2019-02-06T04:22:57.447Z,96.27
2019-02-06T04:25:26.803Z,96.17
2019-02-06T04:27:56.387Z,96.31
2019-02-06T04:30:25.740Z,96.19
2019-02-06T04:32:55.618Z,96.07
2019-02-06T04:35:24.963Z,95.96
2019-02-06T04:37:54.740Z,96.33
2019-02-06T04:40:24.120Z,96.35
2019-02-06T04:45:47.620Z,96.31
2019-02-06T04:48:17.297Z,96.14
2019-02-06T04:50:46.662Z,95.72
2019-02-06T04:53:16.030Z,96.06
2019-02-06T04:55:45.368Z,96.36
2019-02-06T04:58:15.022Z,96.45
2019-02-06T05:00:44.477Z,96.34
2019-02-06T05:03:14.174Z,96.46
2019-02-06T05:05:43.586Z,96.45
2019-02-06T05:08:13.534Z,96.58
2019-02-06T05:10:42.941Z,96.47
2019-02-06T05:13:12.639Z,96.96
2019-02-06T05:15:41.988Z,96.61
2019-02-06T05:18:11.717Z,96.58
2019-02-06T05:20:42.160Z,96.39
2019-02-06T05:23:12.077Z,96.32
2019-02-06T05:25:41.452Z,96.30
2019-02-06T05:28:11.276Z,96.36
2019-02-06T05:30:40.674Z,96.49
2019-02-06T05:33:10.815Z,96.49
2019-02-06T05:35:40.142Z,95.98
2019-02-06T05:38:09.824Z,96.33
2019-02-06T05:40:39.214Z,96.53
2019-02-06T05:43:29.346Z,96.48
2019-02-06T05:45:58.850Z,96.59
2019-02-06T05:48:28.138Z,96.69
2019-02-06T05:50:57.528Z,96.58
2019-02-06T05:53:26.903Z,96.65
2019-02-06T05:55:56.623Z,96.82
2019-02-06T05:58:26.705Z,97.08
2019-02-06T06:01:35.613Z,96.95
2019-02-06T06:04:06.008Z,97.00
2019-02-06T06:06:44.768Z,96.92
2019-02-06T06:09:17.573Z,97.25
2019-02-06T06:11:49.524Z,97.19
2019-02-06T06:14:19.578Z,97.36
2019-02-06T06:19:38.374Z,97.42
2019-02-06T06:22:08.868Z,97.55
2019-02-06T06:24:38.993Z,97.31
2019-02-06T06:27:08.860Z,97.36
2019-02-06T06:29:38.299Z,97.47
2019-02-06T06:32:08.089Z,97.50
2019-02-06T06:34:38.034Z,97.56
2019-02-06T06:37:07.722Z,97.58
2019-02-06T06:39:39.082Z,97.75
2019-02-06T06:42:08.823Z,97.80
2019-02-06T06:44:38.329Z,97.83
2019-02-06T06:47:07.816Z,97.99
2019-02-06T06:49:38.327Z,98.04
2019-02-06T06:52:07.787Z,98.20
2019-02-06T06:54:40.390Z,98.17
2019-02-06T07:02:53.765Z,98.58
2019-02-06T07:05:24.809Z,98.44
2019-02-06T07:07:55.694Z,98.38
2019-02-06T07:10:45.464Z,98.38
2019-02-06T07:13:15.297Z,98.42
2019-02-06T07:15:50.872Z,98.45
2019-02-06T07:18:22.240Z,98.51
2019-02-06T07:21:10.711Z,98.51
2019-02-06T07:26:41.788Z,98.44
2019-02-06T07:29:30.734Z,98.55
2019-02-06T07:32:00.473Z,98.53
2019-02-06T07:34:32.695Z,98.60
2019-02-06T07:37:02.067Z,98.63
2019-02-06T07:39:31.798Z,98.62
2019-02-06T07:42:20.160Z,98.80
2019-02-06T07:44:49.551Z,98.59
2019-02-06T07:47:19.009Z,98.47
2019-02-06T07:49:48.537Z,98.43
2019-02-06T07:52:17.933Z,98.53
2019-02-06T07:54:47.260Z,98.47
2019-02-06T07:57:16.631Z,98.48
2019-02-06T07:59:46.116Z,98.49
2019-02-06T08:04:58.724Z,98.46
2019-02-06T08:07:46.991Z,98.57
2019-02-06T08:10:38.964Z,98.78
2019-02-06T08:13:08.327Z,98.82
2019-02-06T08:15:38.175Z,98.79
2019-02-06T08:18:07.774Z,98.97
2019-02-06T08:23:19.860Z,99.18
2019-02-06T08:25:49.650Z,99.30
2019-02-06T08:28:19.272Z,99.37
2019-02-06T08:30:49.042Z,99.69
2019-02-06T08:33:18.449Z,99.75
2019-02-06T08:35:48.121Z,99.53
2019-02-06T08:38:17.441Z,99.48
2019-02-06T08:40:47.640Z,99.49
2019-02-06T08:43:16.989Z,99.60
2019-02-06T08:45:46.624Z,99.54
2019-02-06T08:48:15.975Z,99.48
2019-02-06T08:50:45.914Z,99.75
2019-02-06T08:53:15.245Z,99.75
2019-02-06T08:55:44.687Z,99.88
2019-02-06T08:58:14.072Z,99.88
2019-02-06T09:00:43.610Z,99.93
2019-02-06T09:03:13.276Z,99.94
2019-02-06T09:05:42.832Z,100.00
2019-02-06T09:08:14.612Z,100.00
2019-02-06T09:10:43.958Z,100.00
2019-02-06T09:13:14.637Z,100.00
2019-02-06T09:18:51.770Z,100.00
2019-02-06T09:21:21.101Z,100.00
2019-02-06T09:23:50.977Z,100.00
2019-02-06T09:26:20.348Z,100.00
2019-02-06T09:28:50.056Z,100.00
2019-02-06T09:31:19.462Z,100.00
2019-02-06T09:33:49.278Z,100.00
2019-02-06T09:36:18.641Z,100.00
2019-02-06T09:38:48.290Z,100.00
2019-02-06T09:41:17.697Z,100.00
2019-02-06T09:43:47.146Z,100.00
2019-02-06T09:46:16.485Z,100.00
2019-02-06T09:48:46.196Z,100.00
2019-02-06T09:51:15.541Z,100.00
2019-02-06T09:56:20.314Z,100.00
2019-02-06T09:58:49.721Z,100.00
2019-02-06T10:01:21.357Z,100.00
2019-02-06T10:03:50.218Z,100.00
2019-02-06T10:09:23.209Z,100.00
2019-02-06T10:11:53.056Z,100.00
2019-02-06T10:14:41.493Z,100.00
2019-02-06T10:17:10.907Z,100.00
2019-02-06T10:19:42.426Z,100.00
2019-02-06T10:22:11.480Z,100.00
2019-02-06T10:24:41.217Z,100.00
2019-02-06T10:29:45.098Z,100.00
2019-02-06T10:32:14.639Z,100.00
2019-02-06T10:34:43.968Z,100.00
2019-02-06T10:37:13.326Z,100.00
2019-02-06T10:39:42.751Z,100.00
2019-02-06T10:42:14.023Z,100.00
2019-02-06T10:44:43.401Z,100.00
2019-02-06T10:47:12.993Z,100.00
2019-02-06T10:49:42.327Z,100.00
2019-02-06T10:52:12.021Z,100.00
2019-02-06T10:54:41.342Z,100.00
2019-02-06T10:57:12.630Z,100.00
2019-02-06T10:59:41.941Z,100.00
2019-02-06T11:02:11.786Z,100.00
2019-02-06T11:04:41.160Z,100.00
2019-02-06T11:07:10.850Z,100.00
2019-02-06T11:09:45.950Z,100.00
2019-02-06T11:12:11.312Z,100.00
2019-02-06T11:14:40.727Z,100.00
2019-02-06T11:17:10.201Z,100.00
2019-02-06T11:19:39.560Z,100.00
2019-02-06T11:22:08.894Z,100.00
2019-02-06T11:24:38.250Z,100.00
2019-02-06T11:27:07.877Z,100.00
2019-02-06T11:29:37.762Z,100.00
2019-02-06T11:32:07.128Z,100.00
2019-02-06T11:34:36.481Z,100.00
2019-02-06T11:37:24.736Z,100.00
2019-02-06T11:39:58.157Z,100.00
2019-02-06T11:42:25.198Z,100.00
2019-02-06T11:44:54.613Z,100.00
2019-02-06T11:47:24.040Z,99.83
2019-02-06T11:50:12.794Z,99.67
2019-02-06T11:52:42.153Z,99.74
2019-02-06T11:55:14.423Z,99.69
2019-02-06T11:58:03.075Z,99.79
2019-02-06T12:01:10.453Z,99.59
2019-02-06T12:03:40.207Z,99.66
2019-02-06T12:06:09.887Z,99.75
2019-02-06T12:08:40.665Z,99.80
2019-02-06T12:13:58.403Z,99.81
2019-02-06T12:16:28.154Z,100.00
2019-02-06T12:19:17.173Z,100.00
2019-02-06T12:21:46.477Z,100.00
2019-02-06T12:24:16.049Z,100.00
2019-02-06T12:26:45.424Z,100.00
2019-02-06T12:29:16.563Z,100.00
2019-02-06T12:31:45.896Z,99.96
2019-02-06T12:34:15.323Z,99.89
2019-02-06T12:36:44.720Z,100.00
2019-02-06T12:39:14.492Z,100.00
2019-02-06T12:41:43.815Z,100.00
2019-02-06T12:44:13.516Z,100.00
2019-02-06T12:46:44.714Z,100.00
2019-02-06T12:49:14.692Z,100.00
2019-02-06T12:51:45.258Z,100.00
2019-02-06T12:54:14.554Z,100.00
2019-02-06T12:56:44.262Z,100.00
2019-02-06T13:02:01.877Z,100.00
2019-02-06T13:04:31.189Z,100.00
2019-02-06T13:07:00.573Z,100.00
2019-02-06T13:09:30.106Z,100.00
2019-02-06T13:11:59.411Z,100.00
2019-02-06T13:14:28.842Z,100.00
2019-02-06T13:16:58.229Z,100.00
2019-02-06T13:19:27.601Z,100.00
2019-02-06T13:21:56.895Z,100.00
2019-02-06T13:24:26.223Z,100.00
2019-02-06T13:27:14.594Z,100.00
2019-02-06T13:29:44.227Z,100.00
2019-02-06T13:32:13.573Z,100.00
2019-02-06T13:34:42.884Z,100.00
2019-02-06T13:37:12.232Z,100.00
2019-02-06T13:39:43.287Z,100.00
2019-02-06T13:42:12.960Z,100.00
2019-02-06T13:44:42.316Z,100.00
2019-02-06T13:47:11.664Z,100.00
2019-02-06T13:50:00.185Z,100.00
2019-02-06T13:52:48.480Z,100.00
2019-02-06T13:55:18.477Z,100.00
2019-02-06T14:01:01.654Z,100.00
2019-02-06T14:03:31.031Z,100.00
2019-02-06T14:06:00.503Z,100.00
2019-02-06T14:08:30.205Z,100.00
2019-02-06T14:11:00.898Z,100.00
2019-02-06T14:13:30.716Z,100.00
2019-02-06T14:16:00.357Z,100.00
2019-02-06T14:18:29.705Z,100.00
2019-02-06T14:20:59.412Z,100.00
2019-02-06T14:23:32.922Z,100.00
2019-02-06T14:26:40.273Z,100.00
2019-02-06T14:29:48.031Z,100.00
2019-02-06T14:32:55.527Z,100.00
2019-02-06T14:36:03.097Z,100.00
2019-02-06T14:39:10.459Z,100.00
2019-02-06T14:42:17.806Z,100.00
2019-02-06T14:45:10.829Z,100.00
2019-02-06T14:48:05.236Z,100.00
2019-02-06T14:51:12.622Z,100.00
2019-02-06T14:54:04.360Z,100.00
2019-02-06T14:57:11.859Z,100.00
2019-02-06T15:00:02.113Z,100.00
2019-02-06T15:03:09.452Z,100.00
2019-02-06T15:06:16.803Z,100.00
2019-02-06T15:09:18.658Z,100.00
2019-02-06T15:12:26.078Z,100.00
2019-02-06T15:15:21.411Z,100.00
2019-02-06T15:18:28.755Z,100.00
2019-02-06T15:21:21.290Z,100.00
2019-02-06T15:24:28.714Z,100.00
2019-02-06T15:27:36.029Z,100.00
2019-02-06T15:30:43.438Z,100.00
2019-02-06T15:33:53.464Z,100.00
2019-02-06T15:37:00.263Z,100.00
2019-02-06T15:40:07.610Z,100.00
2019-02-06T15:42:59.071Z,100.00
2019-02-06T15:45:54.232Z,100.00
2019-02-06T15:48:48.935Z,100.00
2019-02-06T15:51:59.200Z,100.00
2019-02-06T15:55:06.598Z,100.00
2019-02-06T15:57:59.615Z,100.00
2019-02-06T16:01:06.993Z,100.00
2019-02-06T16:04:24.423Z,100.00
2019-02-06T16:07:31.968Z,100.00
2019-02-06T16:10:29.117Z,100.00
2019-02-06T16:13:36.547Z,100.00
2019-02-06T16:16:44.035Z,100.00
2019-02-06T16:19:36.343Z,100.00
2019-02-06T16:22:35.428Z,100.00
2019-02-06T16:25:42.910Z,100.00
2019-02-06T16:28:50.341Z,100.00
2019-02-06T16:31:43.780Z,100.00
2019-02-06T16:34:35.291Z,100.00
2019-02-06T16:37:39.318Z,100.00
2019-02-06T16:40:46.638Z,100.00
2019-02-06T16:43:54.445Z,100.00
2019-02-06T16:47:01.756Z,100.00
2019-02-06T16:50:09.058Z,100.00
2019-02-06T16:53:16.471Z,100.00
2019-02-06T16:56:23.772Z,100.00
2019-02-06T16:59:31.201Z,100.00
2019-02-06T17:02:33.336Z,100.00
2019-02-06T17:05:36.201Z,100.00
2019-02-06T17:08:29.330Z,100.00
2019-02-06T17:11:20.769Z,100.00
2019-02-06T17:14:28.154Z,100.00
2019-02-06T17:17:23.023Z,100.00
2019-02-06T17:20:45.576Z,100.00
2019-02-06T17:23:46.221Z,100.00
2019-02-06T17:26:53.693Z,100.00
2019-02-06T17:30:01.009Z,100.00
2019-02-06T17:33:08.637Z,100.00
2019-02-06T17:36:15.989Z,100.00
2019-02-06T17:39:24.434Z,100.00
2019-02-06T17:42:25.872Z,100.00
2019-02-06T17:45:18.018Z,100.00
2019-02-06T17:48:18.445Z,100.00
2019-02-06T17:51:14.319Z,100.00
2019-02-06T17:54:14.643Z,100.00
2019-02-06T17:56:44.267Z,100.00
2019-02-06T17:59:13.701Z,100.00
2019-02-06T18:01:46.794Z,100.00
2019-02-06T18:04:22.565Z,100.00
2019-02-06T18:06:51.861Z,100.00
2019-02-06T18:09:21.570Z,100.00
2019-02-06T18:12:31.216Z,100.00
2019-02-06T18:15:00.760Z,100.00
2019-02-06T18:17:30.090Z,100.00
2019-02-06T18:19:59.496Z,100.00
2019-02-06T18:22:28.937Z,100.00
2019-02-06T18:24:58.302Z,100.00
2019-02-06T18:27:27.792Z,100.00
2019-02-06T18:29:57.651Z,100.00
2019-02-06T18:32:27.015Z,100.00
2019-02-06T18:34:56.397Z,100.00
2019-02-06T18:37:25.722Z,100.00
2019-02-06T18:39:55.089Z,100.00
2019-02-06T18:42:24.436Z,100.00
2019-02-06T18:44:53.925Z,100.00
2019-02-06T18:47:25.375Z,100.00
2019-02-06T18:49:56.401Z,100.00
2019-02-06T18:52:26.281Z,100.00
2019-02-06T18:54:55.672Z,100.00
2019-02-06T18:57:25.332Z,100.00
2019-02-06T18:59:55.023Z,100.00
2019-02-06T19:02:24.912Z,100.00
2019-02-06T19:04:54.415Z,100.00
2019-02-06T19:07:24.554Z,100.00
2019-02-06T19:09:54.192Z,100.00
2019-02-06T19:12:23.888Z,100.00
2019-02-06T19:14:53.398Z,100.00
2019-02-06T19:17:35.341Z,100.00
2019-02-06T19:19:54.289Z,100.00
2019-02-06T19:22:23.728Z,100.00
2019-02-06T19:24:53.423Z,100.00
2019-02-06T19:27:22.815Z,100.00
2019-02-06T19:30:11.212Z,100.00
2019-02-06T19:32:59.641Z,100.00
2019-02-06T19:38:24.386Z,100.00
2019-02-06T19:40:53.758Z,100.00
2019-02-06T19:43:23.566Z,100.00
2019-02-06T19:45:52.959Z,100.00
2019-02-06T19:48:22.988Z,100.00
2019-02-06T19:50:52.870Z,100.00
2019-02-06T19:53:22.230Z,100.00
2019-02-06T19:55:51.928Z,100.00
2019-02-06T19:58:21.449Z,100.00
2019-02-06T20:00:52.867Z,100.00
2019-02-06T20:03:22.368Z,100.00
2019-02-06T20:05:52.257Z,100.00
2019-02-06T20:08:21.718Z,100.00
2019-02-06T20:10:51.383Z,100.00
2019-02-06T20:13:20.837Z,100.00
2019-02-06T20:16:10.715Z,100.00
2019-02-06T20:18:40.593Z,100.00
2019-02-06T20:21:30.406Z,100.00
2019-02-06T20:24:01.975Z,100.00
2019-02-06T20:26:51.029Z,100.00
2019-02-06T20:29:20.620Z,100.00
2019-02-06T20:31:50.159Z,100.00
2019-02-06T20:34:28.631Z,100.00
2019-02-06T20:36:58.121Z,100.00
2019-02-06T20:39:29.688Z,100.00
2019-02-06T20:41:59.280Z,100.00
2019-02-06T20:44:29.837Z,100.00
2019-02-06T20:47:00.419Z,100.00
2019-02-06T20:49:30.237Z,100.00
2019-02-06T20:52:00.237Z,100.00
2019-02-06T20:54:30.181Z,100.00
2019-02-06T20:57:00.027Z,100.00
2019-02-06T20:59:29.501Z,100.00
2019-02-06T21:01:59.045Z,100.00
2019-02-06T21:04:28.707Z,100.00
2019-02-06T21:06:58.643Z,100.00
2019-02-06T21:09:28.061Z,100.00
2019-02-06T21:14:47.153Z,100.00
2019-02-06T21:17:18.536Z,100.00
2019-02-06T21:19:48.010Z,100.00
2019-02-06T21:22:17.430Z,100.00
2019-02-06T21:24:47.788Z,100.00
2019-02-06T21:27:17.221Z,100.00
2019-02-06T21:34:57.947Z,100.00
2019-02-06T21:37:27.377Z,100.00
2019-02-06T21:39:58.673Z,100.00
2019-02-06T21:42:28.158Z,100.00
2019-02-06T21:44:58.840Z,100.00
2019-02-06T21:47:29.110Z,100.00
2019-02-06T21:49:58.605Z,100.00
2019-02-06T21:52:28.630Z,100.00
2019-02-06T21:54:58.039Z,100.00
2019-02-06T21:57:27.734Z,100.00
2019-02-06T21:59:57.169Z,100.00
2019-02-06T22:02:27.132Z,100.00
2019-02-06T22:04:56.506Z,100.00
2019-02-06T22:07:26.016Z,100.00
2019-02-06T22:09:56.416Z,100.00
2019-02-06T22:12:26.488Z,100.00
2019-02-06T22:14:55.877Z,100.00
2019-02-06T22:17:25.780Z,100.00
2019-02-06T22:19:55.242Z,100.00
2019-02-06T22:22:24.731Z,100.00
2019-02-06T22:24:54.054Z,100.00
2019-02-06T22:27:23.788Z,100.00
2019-02-06T22:30:13.511Z,100.00
2019-02-06T22:32:42.918Z,100.00
2019-02-06T22:35:12.337Z,100.00
2019-02-06T22:37:43.853Z,100.00
2019-02-06T22:40:15.536Z,100.00
2019-02-06T22:45:34.142Z,100.00
2019-02-06T22:48:05.433Z,100.00
2019-02-06T22:50:35.326Z,100.00
2019-02-06T22:53:04.822Z,100.00
2019-02-06T22:55:34.319Z,100.00
2019-02-06T22:58:22.703Z,100.00
2019-02-06T23:01:30.185Z,100.00
2019-02-06T23:04:00.035Z,100.00
2019-02-06T23:06:48.282Z,100.00
2019-02-06T23:09:17.796Z,100.00
2019-02-06T23:11:47.487Z,100.00
2019-02-06T23:14:18.451Z,100.00
2019-02-06T23:16:48.037Z,100.00
2019-02-06T23:19:17.505Z,100.00
2019-02-06T23:21:47.812Z,100.00
2019-02-06T23:24:17.173Z,100.00
2019-02-06T23:26:46.684Z,100.00
2019-02-06T23:29:16.265Z,100.00
2019-02-06T23:31:45.629Z,100.00
2019-02-06T23:34:15.196Z,100.00
2019-02-06T23:36:44.917Z,100.00
2019-02-06T23:39:33.356Z,100.00
2019-02-06T23:42:02.964Z,100.00
2019-02-06T23:44:32.331Z,100.00
2019-02-06T23:47:02.140Z,100.00
2019-02-06T23:49:31.556Z,100.00
2019-02-06T23:52:01.023Z,100.00
2019-02-06T23:54:30.423Z,100.00
2019-02-06T23:57:18.764Z,100.00
2019-02-06T23:59:48.140Z,100.00
